sensor_id;sensor_type;location;lat;lon;timestamp;P1;durP1;ratioP1;P2;durP2;ratioP2
35239;SDS011;21376;50.954;4.716;2022-07-01T00:01:06;23.83;;;10.98;;
35239;SDS011;21376;50.954;4.716;2022-07-01T00:03:34;25.52;;;11.55;;
35239;SDS011;21376;50.954;4.716;2022-07-01T00:06:02;23.98;;;11.05;;
35239;SDS011;21376;50.954;4.716;2022-07-01T00:08:29;24.23;;;10.23;;
35239;SDS011;21376;50.954;4.716;2022-07-01T00:10:55;26.27;;;10.70;;
35239;SDS011;21376;50.954;4.716;2022-07-01T00:13:22;22.85;;;10.88;;
35239;SDS011;21376;50.954;4.716;2022-07-01T00:15:59;22.25;;;11.00;;
35239;SDS011;21376;50.954;4.716;2022-07-01T00:24:02;29.27;;;12.13;;
35239;SDS011;21376;50.954;4.716;2022-07-01T00:29:04;25.70;;;11.30;;
35239;SDS011;21376;50.954;4.716;2022-07-01T00:31:33;22.97;;;10.77;;
35239;SDS011;21376;50.954;4.716;2022-07-01T00:36:33;24.48;;;10.45;;
35239;SDS011;21376;50.954;4.716;2022-07-01T00:39:00;30.85;;;11.60;;
35239;SDS011;21376;50.954;4.716;2022-07-01T00:41:29;31.65;;;11.30;;
35239;SDS011;21376;50.954;4.716;2022-07-01T00:43:55;30.27;;;11.68;;
35239;SDS011;21376;50.954;4.716;2022-07-01T00:46:25;27.58;;;12.13;;
35239;SDS011;21376;50.954;4.716;2022-07-01T00:48:54;31.95;;;11.70;;
35239;SDS011;21376;50.954;4.716;2022-07-01T00:51:28;26.23;;;11.32;;
35239;SDS011;21376;50.954;4.716;2022-07-01T00:53:57;28.17;;;10.82;;
35239;SDS011;21376;50.954;4.716;2022-07-01T00:56:24;29.27;;;10.52;;
35239;SDS011;21376;50.954;4.716;2022-07-01T00:58:54;26.90;;;11.07;;
35239;SDS011;21376;50.954;4.716;2022-07-01T01:01:21;27.33;;;11.50;;
35239;SDS011;21376;50.954;4.716;2022-07-01T01:04:05;26.08;;;11.10;;
35239;SDS011;21376;50.954;4.716;2022-07-01T01:06:36;25.40;;;11.80;;
35239;SDS011;21376;50.954;4.716;2022-07-01T01:09:02;29.15;;;11.57;;
35239;SDS011;21376;50.954;4.716;2022-07-01T01:11:28;24.20;;;11.18;;
35239;SDS011;21376;50.954;4.716;2022-07-01T01:18:57;28.73;;;11.52;;
35239;SDS011;21376;50.954;4.716;2022-07-01T01:21:24;29.90;;;11.82;;
35239;SDS011;21376;50.954;4.716;2022-07-01T01:23:53;21.00;;;11.38;;
35239;SDS011;21376;50.954;4.716;2022-07-01T01:26:25;27.88;;;11.10;;
35239;SDS011;21376;50.954;4.716;2022-07-01T01:28:51;29.08;;;11.82;;
35239;SDS011;21376;50.954;4.716;2022-07-01T01:31:18;25.35;;;11.95;;
35239;SDS011;21376;50.954;4.716;2022-07-01T01:36:25;29.35;;;11.40;;
35239;SDS011;21376;50.954;4.716;2022-07-01T01:38:51;25.38;;;11.50;;
35239;SDS011;21376;50.954;4.716;2022-07-01T01:41:20;25.35;;;11.65;;
35239;SDS011;21376;50.954;4.716;2022-07-01T01:43:47;25.50;;;12.27;;
35239;SDS011;21376;50.954;4.716;2022-07-01T01:46:16;25.73;;;11.57;;
35239;SDS011;21376;50.954;4.716;2022-07-01T01:53:45;24.80;;;11.63;;
35239;SDS011;21376;50.954;4.716;2022-07-01T01:56:12;27.60;;;11.88;;
35239;SDS011;21376;50.954;4.716;2022-07-01T01:58:40;23.52;;;11.50;;
35239;SDS011;21376;50.954;4.716;2022-07-01T02:03:46;25.15;;;12.10;;
35239;SDS011;21376;50.954;4.716;2022-07-01T02:09:32;33.97;;;12.57;;
35239;SDS011;21376;50.954;4.716;2022-07-01T02:11:59;30.85;;;13.98;;
35239;SDS011;21376;50.954;4.716;2022-07-01T02:14:27;29.85;;;13.80;;
35239;SDS011;21376;50.954;4.716;2022-07-01T02:22:47;33.80;;;12.93;;
35239;SDS011;21376;50.954;4.716;2022-07-01T02:25:13;34.78;;;14.55;;
35239;SDS011;21376;50.954;4.716;2022-07-01T02:27:39;31.60;;;14.00;;
35239;SDS011;21376;50.954;4.716;2022-07-01T02:30:04;33.72;;;13.50;;
35239;SDS011;21376;50.954;4.716;2022-07-01T02:32:38;26.50;;;12.77;;
35239;SDS011;21376;50.954;4.716;2022-07-01T02:37:43;30.80;;;13.98;;
35239;SDS011;21376;50.954;4.716;2022-07-01T02:40:20;36.38;;;14.30;;
35239;SDS011;21376;50.954;4.716;2022-07-01T02:42:48;31.20;;;13.00;;
35239;SDS011;21376;50.954;4.716;2022-07-01T02:45:17;25.65;;;13.57;;
35239;SDS011;21376;50.954;4.716;2022-07-01T02:50:22;31.15;;;13.77;;
35239;SDS011;21376;50.954;4.716;2022-07-01T02:52:50;30.05;;;14.48;;
35239;SDS011;21376;50.954;4.716;2022-07-01T02:55:19;41.60;;;15.13;;
35239;SDS011;21376;50.954;4.716;2022-07-01T02:57:50;35.15;;;15.32;;
35239;SDS011;21376;50.954;4.716;2022-07-01T03:05:17;32.95;;;14.30;;
35239;SDS011;21376;50.954;4.716;2022-07-01T03:10:52;36.95;;;16.38;;
35239;SDS011;21376;50.954;4.716;2022-07-01T03:13:30;40.80;;;14.77;;
35239;SDS011;21376;50.954;4.716;2022-07-01T03:15:59;35.70;;;15.48;;
35239;SDS011;21376;50.954;4.716;2022-07-01T03:18:28;47.97;;;16.63;;
35239;SDS011;21376;50.954;4.716;2022-07-01T03:20:55;41.95;;;15.93;;
35239;SDS011;21376;50.954;4.716;2022-07-01T03:23:24;36.17;;;16.20;;
35239;SDS011;21376;50.954;4.716;2022-07-01T03:25:52;44.70;;;16.48;;
35239;SDS011;21376;50.954;4.716;2022-07-01T03:28:21;34.97;;;15.90;;
35239;SDS011;21376;50.954;4.716;2022-07-01T03:30:49;35.45;;;15.85;;
35239;SDS011;21376;50.954;4.716;2022-07-01T03:33:18;36.05;;;16.13;;
35239;SDS011;21376;50.954;4.716;2022-07-01T03:35:44;37.70;;;15.50;;
35239;SDS011;21376;50.954;4.716;2022-07-01T03:38:19;38.20;;;16.17;;
35239;SDS011;21376;50.954;4.716;2022-07-01T03:43:16;33.72;;;15.10;;
35239;SDS011;21376;50.954;4.716;2022-07-01T03:48:40;30.60;;;13.68;;
35239;SDS011;21376;50.954;4.716;2022-07-01T03:51:09;32.67;;;14.32;;
35239;SDS011;21376;50.954;4.716;2022-07-01T03:56:22;31.20;;;13.98;;
35239;SDS011;21376;50.954;4.716;2022-07-01T03:58:48;26.67;;;12.95;;
35239;SDS011;21376;50.954;4.716;2022-07-01T04:01:17;23.42;;;11.82;;
35239;SDS011;21376;50.954;4.716;2022-07-01T04:03:43;27.80;;;12.80;;
35239;SDS011;21376;50.954;4.716;2022-07-01T04:06:18;21.45;;;11.85;;
35239;SDS011;21376;50.954;4.716;2022-07-01T04:08:47;22.98;;;11.43;;
35239;SDS011;21376;50.954;4.716;2022-07-01T04:11:27;29.33;;;12.20;;
35239;SDS011;21376;50.954;4.716;2022-07-01T04:14:00;24.25;;;11.73;;
35239;SDS011;21376;50.954;4.716;2022-07-01T04:21:27;27.13;;;12.55;;
35239;SDS011;21376;50.954;4.716;2022-07-01T04:26:52;26.38;;;12.32;;
35239;SDS011;21376;50.954;4.716;2022-07-01T04:35:04;28.95;;;13.98;;
35239;SDS011;21376;50.954;4.716;2022-07-01T04:40:02;30.20;;;14.93;;
35239;SDS011;21376;50.954;4.716;2022-07-01T04:45:00;33.42;;;16.13;;
35239;SDS011;21376;50.954;4.716;2022-07-01T04:50:23;39.10;;;17.80;;
35239;SDS011;21376;50.954;4.716;2022-07-01T04:52:55;35.03;;;16.23;;
35239;SDS011;21376;50.954;4.716;2022-07-01T04:55:24;34.00;;;16.90;;
35239;SDS011;21376;50.954;4.716;2022-07-01T05:00:37;40.00;;;17.48;;
35239;SDS011;21376;50.954;4.716;2022-07-01T05:03:09;34.17;;;18.00;;
35239;SDS011;21376;50.954;4.716;2022-07-01T05:09:01;33.55;;;16.73;;
35239;SDS011;21376;50.954;4.716;2022-07-01T05:11:28;32.17;;;15.75;;
35239;SDS011;21376;50.954;4.716;2022-07-01T05:13:57;22.25;;;14.57;;
35239;SDS011;21376;50.954;4.716;2022-07-01T05:16:28;29.17;;;16.05;;
35239;SDS011;21376;50.954;4.716;2022-07-01T05:24:32;15.98;;;9.23;;
35239;SDS011;21376;50.954;4.716;2022-07-01T05:26:59;14.27;;;7.53;;
35239;SDS011;21376;50.954;4.716;2022-07-01T05:29:28;10.45;;;6.40;;
35239;SDS011;21376;50.954;4.716;2022-07-01T05:34:26;15.05;;;6.53;;
35239;SDS011;21376;50.954;4.716;2022-07-01T05:39:23;7.43;;;5.07;;
35239;SDS011;21376;50.954;4.716;2022-07-01T05:41:56;9.38;;;4.22;;
35239;SDS011;21376;50.954;4.716;2022-07-01T05:44:24;10.95;;;4.95;;
35239;SDS011;21376;50.954;4.716;2022-07-01T05:46:50;10.13;;;4.68;;
35239;SDS011;21376;50.954;4.716;2022-07-01T05:49:19;8.23;;;5.03;;
35239;SDS011;21376;50.954;4.716;2022-07-01T05:51:56;7.93;;;4.82;;
35239;SDS011;21376;50.954;4.716;2022-07-01T05:54:25;11.48;;;4.45;;
35239;SDS011;21376;50.954;4.716;2022-07-01T05:56:54;6.32;;;4.15;;
35239;SDS011;21376;50.954;4.716;2022-07-01T05:59:23;12.73;;;4.43;;
35239;SDS011;21376;50.954;4.716;2022-07-01T06:01:52;7.97;;;4.70;;
35239;SDS011;21376;50.954;4.716;2022-07-01T06:04:18;10.05;;;3.60;;
35239;SDS011;21376;50.954;4.716;2022-07-01T06:06:47;8.15;;;3.40;;
35239;SDS011;21376;50.954;4.716;2022-07-01T06:09:16;9.20;;;3.45;;
35239;SDS011;21376;50.954;4.716;2022-07-01T06:11:46;5.40;;;3.22;;
35239;SDS011;21376;50.954;4.716;2022-07-01T06:14:15;8.13;;;3.13;;
35239;SDS011;21376;50.954;4.716;2022-07-01T06:16:42;11.18;;;2.92;;
35239;SDS011;21376;50.954;4.716;2022-07-01T06:19:15;8.70;;;3.15;;
35239;SDS011;21376;50.954;4.716;2022-07-01T06:24:13;6.13;;;2.58;;
35239;SDS011;21376;50.954;4.716;2022-07-01T06:26:50;5.88;;;2.80;;
35239;SDS011;21376;50.954;4.716;2022-07-01T06:29:19;11.05;;;3.30;;
35239;SDS011;21376;50.954;4.716;2022-07-01T06:31:46;6.85;;;2.70;;
35239;SDS011;21376;50.954;4.716;2022-07-01T06:34:12;5.28;;;2.08;;
35239;SDS011;21376;50.954;4.716;2022-07-01T06:36:48;9.52;;;2.38;;
35239;SDS011;21376;50.954;4.716;2022-07-01T06:39:22;5.18;;;2.40;;
35239;SDS011;21376;50.954;4.716;2022-07-01T06:41:51;4.63;;;2.20;;
35239;SDS011;21376;50.954;4.716;2022-07-01T06:50:43;7.78;;;2.30;;
35239;SDS011;21376;50.954;4.716;2022-07-01T06:53:13;5.35;;;2.00;;
35239;SDS011;21376;50.954;4.716;2022-07-01T06:55:40;3.28;;;1.85;;
35239;SDS011;21376;50.954;4.716;2022-07-01T06:58:11;6.43;;;1.40;;
35239;SDS011;21376;50.954;4.716;2022-07-01T07:00:37;3.45;;;1.30;;
35239;SDS011;21376;50.954;4.716;2022-07-01T07:03:05;3.90;;;1.67;;
35239;SDS011;21376;50.954;4.716;2022-07-01T07:05:32;4.97;;;1.70;;
35239;SDS011;21376;50.954;4.716;2022-07-01T07:08:00;4.35;;;1.25;;
35239;SDS011;21376;50.954;4.716;2022-07-01T07:10:25;4.13;;;1.40;;
35239;SDS011;21376;50.954;4.716;2022-07-01T07:12:51;5.55;;;1.20;;
35239;SDS011;21376;50.954;4.716;2022-07-01T07:15:18;4.60;;;1.30;;
35239;SDS011;21376;50.954;4.716;2022-07-01T07:17:45;4.32;;;1.58;;
35239;SDS011;21376;50.954;4.716;2022-07-01T07:22:54;3.92;;;1.20;;
35239;SDS011;21376;50.954;4.716;2022-07-01T07:25:23;5.15;;;1.52;;
35239;SDS011;21376;50.954;4.716;2022-07-01T07:30:21;7.47;;;1.40;;
35239;SDS011;21376;50.954;4.716;2022-07-01T07:32:53;4.00;;;1.45;;
35239;SDS011;21376;50.954;4.716;2022-07-01T07:37:50;8.27;;;1.73;;
35239;SDS011;21376;50.954;4.716;2022-07-01T07:45:24;4.90;;;1.30;;
35239;SDS011;21376;50.954;4.716;2022-07-01T07:47:56;2.78;;;1.05;;
35239;SDS011;21376;50.954;4.716;2022-07-01T07:50:24;3.75;;;1.05;;
35239;SDS011;21376;50.954;4.716;2022-07-01T07:55:22;4.57;;;1.40;;
35239;SDS011;21376;50.954;4.716;2022-07-01T07:57:51;3.97;;;1.20;;
35239;SDS011;21376;50.954;4.716;2022-07-01T08:00:20;3.53;;;1.20;;
35239;SDS011;21376;50.954;4.716;2022-07-01T08:02:53;6.03;;;1.75;;
35239;SDS011;21376;50.954;4.716;2022-07-01T08:05:19;5.68;;;1.60;;
35239;SDS011;21376;50.954;4.716;2022-07-01T08:40:35;6.43;;;1.30;;
35239;SDS011;21376;50.954;4.716;2022-07-01T08:45:34;5.05;;;1.08;;
35239;SDS011;21376;50.954;4.716;2022-07-01T08:48:09;3.25;;;1.13;;
35239;SDS011;21376;50.954;4.716;2022-07-01T08:50:36;4.53;;;1.23;;
35239;SDS011;21376;50.954;4.716;2022-07-01T08:53:08;3.53;;;1.13;;
35239;SDS011;21376;50.954;4.716;2022-07-01T08:55:41;3.83;;;1.40;;
35239;SDS011;21376;50.954;4.716;2022-07-01T09:04:12;7.93;;;1.20;;
35239;SDS011;21376;50.954;4.716;2022-07-01T09:07:03;4.40;;;1.08;;
35239;SDS011;21376;50.954;4.716;2022-07-01T09:09:34;3.75;;;1.00;;
35239;SDS011;21376;50.954;4.716;2022-07-01T09:12:04;9.32;;;3.15;;
35239;SDS011;21376;50.954;4.716;2022-07-01T09:14:36;3.10;;;0.90;;
35239;SDS011;21376;50.954;4.716;2022-07-01T09:17:05;5.00;;;1.38;;
35239;SDS011;21376;50.954;4.716;2022-07-01T09:19:37;3.92;;;1.10;;
35239;SDS011;21376;50.954;4.716;2022-07-01T09:22:08;2.83;;;0.82;;
35239;SDS011;21376;50.954;4.716;2022-07-01T09:24:35;4.72;;;1.10;;
35239;SDS011;21376;50.954;4.716;2022-07-01T09:27:07;3.92;;;1.13;;
35239;SDS011;21376;50.954;4.716;2022-07-01T09:29:51;3.05;;;1.00;;
35239;SDS011;21376;50.954;4.716;2022-07-01T09:32:19;2.47;;;0.70;;
35239;SDS011;21376;50.954;4.716;2022-07-01T09:34:48;5.05;;;1.20;;
35239;SDS011;21376;50.954;4.716;2022-07-01T09:37:18;2.72;;;0.88;;
35239;SDS011;21376;50.954;4.716;2022-07-01T09:39:48;4.97;;;1.15;;
35239;SDS011;21376;50.954;4.716;2022-07-01T09:42:30;3.15;;;0.95;;
35239;SDS011;21376;50.954;4.716;2022-07-01T09:44:58;6.63;;;0.98;;
35239;SDS011;21376;50.954;4.716;2022-07-01T09:47:24;2.83;;;0.75;;
35239;SDS011;21376;50.954;4.716;2022-07-01T09:52:26;3.28;;;1.30;;
35239;SDS011;21376;50.954;4.716;2022-07-01T09:54:58;3.17;;;0.70;;
35239;SDS011;21376;50.954;4.716;2022-07-01T09:57:24;3.90;;;0.90;;
35239;SDS011;21376;50.954;4.716;2022-07-01T09:59:51;3.05;;;1.00;;
35239;SDS011;21376;50.954;4.716;2022-07-01T10:02:19;2.20;;;0.93;;
35239;SDS011;21376;50.954;4.716;2022-07-01T10:04:53;3.65;;;1.00;;
35239;SDS011;21376;50.954;4.716;2022-07-01T10:07:38;3.95;;;0.88;;
35239;SDS011;21376;50.954;4.716;2022-07-01T10:10:38;2.53;;;0.75;;
35239;SDS011;21376;50.954;4.716;2022-07-01T10:13:09;2.95;;;0.90;;
35239;SDS011;21376;50.954;4.716;2022-07-01T10:15:40;3.05;;;1.02;;
35239;SDS011;21376;50.954;4.716;2022-07-01T10:18:06;2.88;;;0.90;;
35239;SDS011;21376;50.954;4.716;2022-07-01T10:20:47;2.97;;;1.10;;
35239;SDS011;21376;50.954;4.716;2022-07-01T10:23:13;3.30;;;1.15;;
35239;SDS011;21376;50.954;4.716;2022-07-01T10:25:40;4.05;;;1.33;;
35239;SDS011;21376;50.954;4.716;2022-07-01T10:28:25;3.38;;;0.93;;
35239;SDS011;21376;50.954;4.716;2022-07-01T10:36:05;3.80;;;1.70;;
35239;SDS011;21376;50.954;4.716;2022-07-01T10:39:07;4.55;;;1.75;;
35239;SDS011;21376;50.954;4.716;2022-07-01T10:41:58;4.57;;;1.70;;
35239;SDS011;21376;50.954;4.716;2022-07-01T10:44:26;5.90;;;2.30;;
35239;SDS011;21376;50.954;4.716;2022-07-01T10:46:53;5.40;;;1.95;;
35239;SDS011;21376;50.954;4.716;2022-07-01T10:49:50;3.75;;;1.77;;
35239;SDS011;21376;50.954;4.716;2022-07-01T10:52:35;6.72;;;2.08;;
35239;SDS011;21376;50.954;4.716;2022-07-01T10:55:02;4.85;;;2.10;;
35239;SDS011;21376;50.954;4.716;2022-07-01T10:57:39;4.00;;;1.83;;
35239;SDS011;21376;50.954;4.716;2022-07-01T11:02:33;2.78;;;1.58;;
35239;SDS011;21376;50.954;4.716;2022-07-01T11:07:29;4.25;;;1.77;;
35239;SDS011;21376;50.954;4.716;2022-07-01T11:09:58;3.55;;;1.60;;
35239;SDS011;21376;50.954;4.716;2022-07-01T11:12:25;3.38;;;1.88;;
35239;SDS011;21376;50.954;4.716;2022-07-01T11:14:54;3.67;;;1.77;;
35239;SDS011;21376;50.954;4.716;2022-07-01T11:17:21;3.88;;;1.80;;
35239;SDS011;21376;50.954;4.716;2022-07-01T11:19:48;3.78;;;1.40;;
35239;SDS011;21376;50.954;4.716;2022-07-01T11:22:21;5.03;;;1.85;;
35239;SDS011;21376;50.954;4.716;2022-07-01T11:24:56;4.07;;;1.60;;
35239;SDS011;21376;50.954;4.716;2022-07-01T11:29:57;3.20;;;1.30;;
35239;SDS011;21376;50.954;4.716;2022-07-01T11:32:27;4.72;;;1.40;;
35239;SDS011;21376;50.954;4.716;2022-07-01T11:37:31;3.03;;;1.30;;
35239;SDS011;21376;50.954;4.716;2022-07-01T11:40:18;5.60;;;1.30;;
35239;SDS011;21376;50.954;4.716;2022-07-01T11:42:50;6.20;;;1.40;;
35239;SDS011;21376;50.954;4.716;2022-07-01T11:47:55;8.45;;;1.38;;
35239;SDS011;21376;50.954;4.716;2022-07-01T11:50:23;1.63;;;1.20;;
35239;SDS011;21376;50.954;4.716;2022-07-01T11:52:53;3.45;;;1.30;;
35239;SDS011;21376;50.954;4.716;2022-07-01T11:55:23;2.45;;;1.10;;
35239;SDS011;21376;50.954;4.716;2022-07-01T12:05:18;5.90;;;1.33;;
35239;SDS011;21376;50.954;4.716;2022-07-01T12:10:16;2.78;;;1.35;;
35239;SDS011;21376;50.954;4.716;2022-07-01T12:15:12;3.78;;;1.20;;
35239;SDS011;21376;50.954;4.716;2022-07-01T12:17:41;2.40;;;1.17;;
35239;SDS011;21376;50.954;4.716;2022-07-01T12:23:29;5.57;;;1.20;;
35239;SDS011;21376;50.954;4.716;2022-07-01T12:26:03;5.28;;;1.00;;
35239;SDS011;21376;50.954;4.716;2022-07-01T12:28:36;2.35;;;1.00;;
35239;SDS011;21376;50.954;4.716;2022-07-01T12:31:07;2.88;;;1.00;;
35239;SDS011;21376;50.954;4.716;2022-07-01T12:33:48;1.88;;;0.93;;
35239;SDS011;21376;50.954;4.716;2022-07-01T12:36:18;1.40;;;0.80;;
35239;SDS011;21376;50.954;4.716;2022-07-01T12:38:44;3.20;;;0.73;;
35239;SDS011;21376;50.954;4.716;2022-07-01T12:44:34;1.27;;;0.70;;
35239;SDS011;21376;50.954;4.716;2022-07-01T12:46:58;2.25;;;0.80;;
35239;SDS011;21376;50.954;4.716;2022-07-01T12:51:54;1.77;;;0.68;;
35239;SDS011;21376;50.954;4.716;2022-07-01T13:03:06;2.33;;;0.82;;
35239;SDS011;21376;50.954;4.716;2022-07-01T13:10:55;1.63;;;0.70;;
35239;SDS011;21376;50.954;4.716;2022-07-01T13:13:23;2.80;;;0.88;;
35239;SDS011;21376;50.954;4.716;2022-07-01T13:15:52;5.15;;;0.95;;
35239;SDS011;21376;50.954;4.716;2022-07-01T13:20:48;1.70;;;0.60;;
35239;SDS011;21376;50.954;4.716;2022-07-01T13:23:14;4.22;;;0.82;;
35239;SDS011;21376;50.954;4.716;2022-07-01T13:25:43;1.88;;;0.80;;
35239;SDS011;21376;50.954;4.716;2022-07-01T13:28:15;2.55;;;0.90;;
35239;SDS011;21376;50.954;4.716;2022-07-01T13:30:44;3.40;;;0.90;;
35239;SDS011;21376;50.954;4.716;2022-07-01T13:38:44;1.88;;;0.57;;
35239;SDS011;21376;50.954;4.716;2022-07-01T13:43:38;2.03;;;0.60;;
35239;SDS011;21376;50.954;4.716;2022-07-01T13:46:07;4.03;;;0.60;;
35239;SDS011;21376;50.954;4.716;2022-07-01T13:48:36;1.65;;;0.50;;
35239;SDS011;21376;50.954;4.716;2022-07-01T13:51:05;3.60;;;0.60;;
35239;SDS011;21376;50.954;4.716;2022-07-01T13:53:34;4.25;;;0.85;;
35239;SDS011;21376;50.954;4.716;2022-07-01T13:58:29;3.75;;;0.70;;
35239;SDS011;21376;50.954;4.716;2022-07-01T14:00:58;2.88;;;0.60;;
35239;SDS011;21376;50.954;4.716;2022-07-01T14:03:24;3.15;;;0.90;;
35239;SDS011;21376;50.954;4.716;2022-07-01T14:05:53;3.00;;;0.73;;
35239;SDS011;21376;50.954;4.716;2022-07-01T14:08:18;4.05;;;0.60;;
35239;SDS011;21376;50.954;4.716;2022-07-01T14:18:46;2.95;;;0.70;;
35239;SDS011;21376;50.954;4.716;2022-07-01T14:21:14;4.65;;;0.70;;
35239;SDS011;21376;50.954;4.716;2022-07-01T14:23:40;2.28;;;0.93;;
35239;SDS011;21376;50.954;4.716;2022-07-01T14:26:09;5.88;;;0.70;;
35239;SDS011;21376;50.954;4.716;2022-07-01T14:28:36;8.20;;;0.85;;
35239;SDS011;21376;50.954;4.716;2022-07-01T14:31:05;5.68;;;0.95;;
35239;SDS011;21376;50.954;4.716;2022-07-01T14:33:46;1.70;;;0.60;;
35239;SDS011;21376;50.954;4.716;2022-07-01T14:36:18;2.47;;;0.70;;
35239;SDS011;21376;50.954;4.716;2022-07-01T14:41:13;2.40;;;0.63;;
35239;SDS011;21376;50.954;4.716;2022-07-01T14:43:42;3.25;;;0.85;;
35239;SDS011;21376;50.954;4.716;2022-07-01T14:46:12;3.95;;;0.82;;
35239;SDS011;21376;50.954;4.716;2022-07-01T14:48:45;4.55;;;0.80;;
35239;SDS011;21376;50.954;4.716;2022-07-01T14:51:12;5.13;;;1.00;;
35239;SDS011;21376;50.954;4.716;2022-07-01T14:53:44;2.60;;;0.50;;
35239;SDS011;21376;50.954;4.716;2022-07-01T14:56:13;4.53;;;0.88;;
35239;SDS011;21376;50.954;4.716;2022-07-01T14:58:40;2.67;;;0.80;;
35239;SDS011;21376;50.954;4.716;2022-07-01T15:07:03;1.55;;;0.70;;
35239;SDS011;21376;50.954;4.716;2022-07-01T15:12:00;6.95;;;1.58;;
35239;SDS011;21376;50.954;4.716;2022-07-01T15:14:36;4.88;;;0.90;;
35239;SDS011;21376;50.954;4.716;2022-07-01T15:17:02;6.60;;;1.23;;
35239;SDS011;21376;50.954;4.716;2022-07-01T15:19:31;3.58;;;0.80;;
35239;SDS011;21376;50.954;4.716;2022-07-01T15:21:57;4.45;;;1.42;;
35239;SDS011;21376;50.954;4.716;2022-07-01T15:24:26;5.40;;;0.98;;
35239;SDS011;21376;50.954;4.716;2022-07-01T15:26:52;4.15;;;0.98;;
35239;SDS011;21376;50.954;4.716;2022-07-01T15:31:48;9.50;;;1.20;;
35239;SDS011;21376;50.954;4.716;2022-07-01T15:34:14;3.60;;;1.10;;
35239;SDS011;21376;50.954;4.716;2022-07-01T15:36:44;5.20;;;1.00;;
35239;SDS011;21376;50.954;4.716;2022-07-01T15:39:10;6.47;;;1.38;;
35239;SDS011;21376;50.954;4.716;2022-07-01T16:29:55;8.38;;;2.00;;
35239;SDS011;21376;50.954;4.716;2022-07-01T16:32:25;3.88;;;1.77;;
35239;SDS011;21376;50.954;4.716;2022-07-01T16:43:07;7.57;;;1.58;;
35239;SDS011;21376;50.954;4.716;2022-07-01T16:45:48;4.45;;;1.13;;
35239;SDS011;21376;50.954;4.716;2022-07-01T16:48:19;3.50;;;1.60;;
35239;SDS011;21376;50.954;4.716;2022-07-01T16:50:53;3.25;;;1.00;;
35239;SDS011;21376;50.954;4.716;2022-07-01T16:53:39;3.67;;;1.58;;
35239;SDS011;21376;50.954;4.716;2022-07-01T16:56:12;7.90;;;4.22;;
35239;SDS011;21376;50.954;4.716;2022-07-01T16:59:03;6.38;;;2.53;;
35239;SDS011;21376;50.954;4.716;2022-07-01T17:01:30;4.18;;;2.20;;
35239;SDS011;21376;50.954;4.716;2022-07-01T17:16:33;2.05;;;1.25;;
35239;SDS011;21376;50.954;4.716;2022-07-01T17:19:05;4.90;;;1.60;;
35239;SDS011;21376;50.954;4.716;2022-07-01T17:21:37;4.35;;;1.70;;
35239;SDS011;21376;50.954;4.716;2022-07-01T17:24:07;5.70;;;1.25;;
35239;SDS011;21376;50.954;4.716;2022-07-01T17:29:23;4.78;;;1.92;;
35239;SDS011;21376;50.954;4.716;2022-07-01T17:32:01;4.50;;;2.05;;
35239;SDS011;21376;50.954;4.716;2022-07-01T17:34:31;33.05;;;19.52;;
35239;SDS011;21376;50.954;4.716;2022-07-01T17:36:58;8.95;;;3.47;;
35239;SDS011;21376;50.954;4.716;2022-07-01T17:39:39;18.02;;;13.13;;
35239;SDS011;21376;50.954;4.716;2022-07-01T17:42:11;5.57;;;3.40;;
35239;SDS011;21376;50.954;4.716;2022-07-01T17:44:40;6.60;;;3.10;;
35239;SDS011;21376;50.954;4.716;2022-07-01T17:47:11;7.43;;;3.42;;
35239;SDS011;21376;50.954;4.716;2022-07-01T17:49:39;4.90;;;1.90;;
35239;SDS011;21376;50.954;4.716;2022-07-01T17:52:09;4.07;;;1.60;;
35239;SDS011;21376;50.954;4.716;2022-07-01T17:54:35;5.22;;;1.27;;
35239;SDS011;21376;50.954;4.716;2022-07-01T17:57:02;5.20;;;1.40;;
35239;SDS011;21376;50.954;4.716;2022-07-01T17:59:29;3.58;;;1.40;;
35239;SDS011;21376;50.954;4.716;2022-07-01T18:01:59;3.33;;;1.25;;
35239;SDS011;21376;50.954;4.716;2022-07-01T18:04:32;3.38;;;1.27;;
35239;SDS011;21376;50.954;4.716;2022-07-01T18:07:07;3.22;;;1.98;;
35239;SDS011;21376;50.954;4.716;2022-07-01T18:09:36;3.72;;;1.80;;
35239;SDS011;21376;50.954;4.716;2022-07-01T18:23:16;2.65;;;0.68;;
35239;SDS011;21376;50.954;4.716;2022-07-01T18:25:49;3.92;;;0.90;;
35239;SDS011;21376;50.954;4.716;2022-07-01T18:28:42;4.43;;;1.08;;
35239;SDS011;21376;50.954;4.716;2022-07-01T18:31:13;6.43;;;1.13;;
35239;SDS011;21376;50.954;4.716;2022-07-01T18:36:58;12.18;;;7.05;;
35239;SDS011;21376;50.954;4.716;2022-07-01T18:39:28;5.07;;;2.05;;
35239;SDS011;21376;50.954;4.716;2022-07-01T18:41:53;7.97;;;6.13;;
35239;SDS011;21376;50.954;4.716;2022-07-01T18:44:19;4.68;;;1.63;;
35239;SDS011;21376;50.954;4.716;2022-07-01T18:46:45;3.28;;;1.50;;
35239;SDS011;21376;50.954;4.716;2022-07-01T18:49:11;3.78;;;1.10;;
35239;SDS011;21376;50.954;4.716;2022-07-01T18:51:36;3.42;;;1.13;;
35239;SDS011;21376;50.954;4.716;2022-07-01T18:54:02;2.72;;;0.80;;
35239;SDS011;21376;50.954;4.716;2022-07-01T18:56:28;4.35;;;1.40;;
35239;SDS011;21376;50.954;4.716;2022-07-01T18:58:54;3.67;;;1.30;;
35239;SDS011;21376;50.954;4.716;2022-07-01T19:01:20;2.25;;;1.33;;
35239;SDS011;21376;50.954;4.716;2022-07-01T19:03:46;3.47;;;1.40;;
35239;SDS011;21376;50.954;4.716;2022-07-01T19:06:11;3.13;;;1.05;;
35239;SDS011;21376;50.954;4.716;2022-07-01T19:08:37;4.45;;;1.40;;
35239;SDS011;21376;50.954;4.716;2022-07-01T19:11:03;4.38;;;1.15;;
35239;SDS011;21376;50.954;4.716;2022-07-01T19:13:29;4.60;;;1.50;;
35239;SDS011;21376;50.954;4.716;2022-07-01T19:15:56;4.60;;;1.33;;
35239;SDS011;21376;50.954;4.716;2022-07-01T19:18:22;5.18;;;1.80;;
35239;SDS011;21376;50.954;4.716;2022-07-01T19:20:48;3.17;;;1.67;;
35239;SDS011;21376;50.954;4.716;2022-07-01T19:23:13;10.88;;;6.18;;
35239;SDS011;21376;50.954;4.716;2022-07-01T19:25:39;6.13;;;2.90;;
35239;SDS011;21376;50.954;4.716;2022-07-01T19:28:06;8.48;;;2.45;;
35239;SDS011;21376;50.954;4.716;2022-07-01T19:30:32;4.70;;;1.90;;
35239;SDS011;21376;50.954;4.716;2022-07-01T19:32:58;8.35;;;3.03;;
35239;SDS011;21376;50.954;4.716;2022-07-01T19:35:24;4.95;;;2.90;;
35239;SDS011;21376;50.954;4.716;2022-07-01T19:37:50;4.22;;;2.08;;
35239;SDS011;21376;50.954;4.716;2022-07-01T19:40:22;5.10;;;1.23;;
35239;SDS011;21376;50.954;4.716;2022-07-01T19:42:50;7.90;;;1.67;;
35239;SDS011;21376;50.954;4.716;2022-07-01T19:45:16;3.78;;;1.30;;
35239;SDS011;21376;50.954;4.716;2022-07-01T19:47:42;5.32;;;1.60;;
35239;SDS011;21376;50.954;4.716;2022-07-01T19:50:08;3.00;;;1.20;;
35239;SDS011;21376;50.954;4.716;2022-07-01T19:52:34;6.55;;;1.10;;
35239;SDS011;21376;50.954;4.716;2022-07-01T19:54:59;3.28;;;1.20;;
35239;SDS011;21376;50.954;4.716;2022-07-01T19:57:25;7.78;;;1.67;;
35239;SDS011;21376;50.954;4.716;2022-07-01T19:59:51;5.22;;;1.10;;
35239;SDS011;21376;50.954;4.716;2022-07-01T20:02:18;6.05;;;1.58;;
35239;SDS011;21376;50.954;4.716;2022-07-01T20:04:43;6.53;;;1.85;;
35239;SDS011;21376;50.954;4.716;2022-07-01T20:07:10;4.07;;;1.45;;
35239;SDS011;21376;50.954;4.716;2022-07-01T20:09:37;5.85;;;1.48;;
35239;SDS011;21376;50.954;4.716;2022-07-01T20:12:03;6.05;;;1.30;;
35239;SDS011;21376;50.954;4.716;2022-07-01T20:14:30;4.35;;;2.00;;
35239;SDS011;21376;50.954;4.716;2022-07-01T20:16:56;9.32;;;1.90;;
35239;SDS011;21376;50.954;4.716;2022-07-01T20:19:27;3.95;;;1.40;;
35239;SDS011;21376;50.954;4.716;2022-07-01T20:21:54;5.55;;;1.67;;
35239;SDS011;21376;50.954;4.716;2022-07-01T20:24:19;6.03;;;1.65;;
35239;SDS011;21376;50.954;4.716;2022-07-01T20:26:50;6.55;;;1.92;;
35239;SDS011;21376;50.954;4.716;2022-07-01T20:29:19;6.97;;;2.28;;
35239;SDS011;21376;50.954;4.716;2022-07-01T20:31:45;7.78;;;1.67;;